Aeroporto :
LOGIN :

Iscrizione | Disclaimer

   EN    FR    IT 

 










Sommario :    VFR   VFR Marginale   IFR   IFR Intensivo   IFR Molto Intensivo
Visibilità : 
Base nubi : 
>= 8 km
>= 3000ft
5 / 8 km
1000 / 3000 ft
1500m / 5 km
500 / 1000 ft
800 / 1500m
200 / 500 ft
< 800m
< 200 ft
Simboli :   Temporali  Nebbia  Neve Forte  Precipitazioni Forti  Vento > 20 kt
SIGMETs :   Varie  Temporali  Ghiacco  Turbolenza  Onda orograficha  Ceneri Vulcaniche







- Altitudine del aeroporto : 755 ft
- Codice IATA : KSC


LZKZ - Kosice

ULTIMO METAR :
  • 260830Z 19007KT 160V220 CAVOK 21/14 Q1015 NOSIG

METARs OBSOLETI :
  • 260800Z 17004KT 120V200 CAVOK 21/14 Q1015 NOSIG
  • 260730Z VRB02KT CAVOK 20/13 Q1015 NOSIG
  • 260700Z VRB02KT CAVOK 19/12 Q1015 NOSIG
  • 260630Z VRB02KT CAVOK 18/12 Q1015 NOSIG
  • 260600Z VRB02KT CAVOK 17/11 Q1015 NOSIG
  • 260551Z 02003KT 340V070 CAVOK 17/11 Q1015

TAF TAF LZKZ
Valido dal 26 a 06 ore il 27 a 06 ore UTC


260500Z 2606/2706 VRB02KT CAVOK
BECMG 2608/2610 21006KT 9999 FEW040
TEMPO 2610/2617 21012KT FEW040CB SCT050
BECMG 2619/2621 VRB02KT CAVOK
Nessun NOTAM noto per questo aeroporto.



MetMap, La meteo Aeronautica in un colpo d'occhio ! - Copyright ORBIFLY Dicembre 2007 - Disclaimer

ORBIFLY MET'MAP TEAM :

Programmazione e sviluppo : Alexandra Zaïnal
Concezione e sviluppo : Baudouin d'Aumeries
Co-Programmazione e sviluppo : Marc-Olivier Méhu
Supporto tecnico e logistico : Manuel Goepfert
Aiuto per la traduzione : Arnaldo La Scala

Contatto : metmap@orbifly.com




FONTI E CREDITI :

   NOAA